Time;durP1;ratioP1;P1;durP2;ratioP2;P2;SDS_P1;SDS_P2;PMS_P1;PMS_P2;Temp;Humidity;BMP_temperature;BMP_pressure;BME280_temperature;BME280_humidity;BME280_pressure;Samples;Min_cycle;Max_cycle;Signal;HPM_P1;HPM_P2
2022/07/10 00:02:09;;;;;;;8.37;2.30;;;13.90;84.30;;;;;;5053701;28;20195;-83
2022/07/10 00:04:34;;;;;;;14.23;2.40;;;13.80;84.40;;;;;;5053838;28;20172;-83
2022/07/10 00:07:01;;;;;;;8.73;1.90;;;13.80;84.20;;;;;;5054077;28;20178;-83
2022/07/10 00:09:28;;;;;;;6.27;1.53;;;13.80;83.70;;;;;;5054071;28;20226;-83
2022/07/10 00:11:53;;;;;;;10.07;2.00;;;13.80;83.10;;;;;;5053949;28;20187;-84
2022/07/10 00:14:20;;;;;;;6.63;1.60;;;13.80;83.00;;;;;;5055114;28;20175;-83
2022/07/10 00:16:46;;;;;;;11.30;2.03;;;13.90;83.10;;;;;;5053715;28;20172;-84
2022/07/10 00:19:11;;;;;;;6.47;2.03;;;13.90;82.50;;;;;;5054805;28;20179;-84
2022/07/10 00:21:37;;;;;;;7.43;2.37;;;13.90;82.10;;;;;;5055060;28;20572;-83
2022/07/10 00:24:03;;;;;;;8.17;2.07;;;14.00;82.10;;;;;;5055219;28;20251;-84
2022/07/10 00:26:29;;;;;;;9.27;3.10;;;14.00;81.90;;;;;;5053907;28;20175;-85
2022/07/10 00:28:54;;;;;;;7.63;2.40;;;14.00;82.10;;;;;;5053712;28;20247;-84
2022/07/10 00:31:20;;;;;;;8.00;2.00;;;14.00;82.00;;;;;;5055475;28;20211;-83
2022/07/10 00:33:46;;;;;;;7.87;1.67;;;14.00;82.10;;;;;;5054959;28;20172;-84
2022/07/10 00:36:12;;;;;;;9.40;2.50;;;13.90;82.20;;;;;;5053597;28;20172;-84
2022/07/10 00:38:37;;;;;;;7.13;1.90;;;13.80;82.10;;;;;;5054504;28;20646;-85
2022/07/10 00:41:03;;;;;;;6.57;1.70;;;13.80;82.30;;;;;;5053097;28;20203;-84
2022/07/10 00:43:28;;;;;;;9.67;2.53;;;13.80;82.30;;;;;;5054236;28;20176;-84
2022/07/10 00:45:54;;;;;;;6.37;1.67;;;13.80;82.80;;;;;;5054221;28;20168;-84
2022/07/10 00:48:19;;;;;;;8.40;1.50;;;13.80;83.10;;;;;;5054209;28;20168;-85
2022/07/10 00:50:46;;;;;;;9.43;1.80;;;13.70;83.40;;;;;;5053985;28;20175;-84
2022/07/10 00:53:13;;;;;;;6.83;1.40;;;13.70;83.60;;;;;;5053092;28;20649;-85
2022/07/10 00:55:39;;;;;;;7.77;1.70;;;13.80;83.40;;;;;;5053105;28;20275;-86
2022/07/10 00:58:07;;;;;;;9.40;1.97;;;13.80;82.30;;;;;;5054009;28;20222;-86
2022/07/10 01:00:35;;;;;;;9.33;2.17;;;14.00;81.80;;;;;;5053119;28;20274;-87
2022/07/10 01:03:00;;;;;;;7.23;1.87;;;14.00;81.90;;;;;;5052923;28;20248;-86
2022/07/10 01:05:26;;;;;;;9.40;1.90;;;14.00;82.40;;;;;;5052920;28;20266;-86
2022/07/10 01:07:51;;;;;;;9.90;2.00;;;13.90;82.70;;;;;;5053104;28;20646;-86
2022/07/10 01:10:17;;;;;;;7.43;1.93;;;13.80;82.60;;;;;;5052788;28;20176;-87
2022/07/10 01:12:43;;;;;;;13.33;2.30;;;13.80;83.00;;;;;;5052081;28;20290;-86
2022/07/10 01:15:09;;;;;;;4.43;1.30;;;13.70;83.40;;;;;;5053906;28;20199;-86
2022/07/10 01:17:35;;;;;;;13.17;2.07;;;13.60;85.10;;;;;;5052567;28;20211;-87
2022/07/10 01:20:05;;;;;;;12.33;1.93;;;13.50;85.50;;;;;;5054083;28;20164;-87
2022/07/10 01:22:31;;;;;;;9.63;1.80;;;13.50;85.80;;;;;;5053933;28;20186;-87
2022/07/10 01:24:57;;;;;;;12.67;2.47;;;13.30;85.80;;;;;;5053705;28;20180;-86
2022/07/10 01:27:22;;;;;;;9.37;1.87;;;13.30;86.10;;;;;;5052542;28;20560;-86
2022/07/10 01:29:49;;;;;;;11.80;2.50;;;13.40;86.10;;;;;;5052474;28;20180;-87
2022/07/10 01:32:15;;;;;;;12.97;2.37;;;13.40;86.10;;;;;;5052100;28;20204;-86
2022/07/10 01:34:40;;;;;;;12.13;2.53;;;13.50;86.00;;;;;;5053414;28;20546;-87
2022/07/10 01:37:06;;;;;;;10.03;2.20;;;13.50;85.60;;;;;;5053341;28;20276;-86
2022/07/10 01:39:32;;;;;;;10.33;2.27;;;13.50;85.30;;;;;;5052105;28;20178;-86
2022/07/10 01:41:57;;;;;;;16.30;3.00;;;13.60;85.00;;;;;;5053582;28;20202;-86
2022/07/10 01:44:23;;;;;;;16.93;2.97;;;13.70;84.80;;;;;;5053531;28;20547;-86
2022/07/10 01:46:48;;;;;;;13.50;2.73;;;13.70;84.00;;;;;;5053403;28;20638;-87
2022/07/10 01:49:15;;;;;;;13.00;3.07;;;13.80;83.70;;;;;;5052217;28;20191;-86
2022/07/10 01:51:41;;;;;;;16.73;3.37;;;13.80;83.40;;;;;;5051976;28;20204;-86
2022/07/10 01:54:06;;;;;;;12.53;3.00;;;13.80;83.00;;;;;;5052003;28;20176;-86
2022/07/10 01:56:32;;;;;;;18.00;3.30;;;13.80;82.60;;;;;;5051955;28;20206;-86
2022/07/10 01:59:00;;;;;;;16.67;3.17;;;13.80;83.00;;;;;;5051772;28;20246;-85
2022/07/10 02:01:25;;;;;;;13.53;3.27;;;13.80;83.30;;;;;;5052044;28;20613;-86
2022/07/10 02:06:35;;;;;;;9.40;2.40;;;13.70;83.80;;;;;;5053126;28;20164;-86
2022/07/10 02:09:00;;;;;;;12.70;2.40;;;13.70;84.00;;;;;;5053047;28;20176;-87
2022/07/10 02:11:26;;;;;;;15.53;2.70;;;13.70;84.80;;;;;;5053004;28;20618;-86
2022/07/10 02:13:51;;;;;;;11.03;2.40;;;13.60;85.00;;;;;;5051628;28;20180;-86
2022/07/10 02:16:17;;;;;;;10.63;2.50;;;13.50;85.40;;;;;;5051666;28;20209;-86
2022/07/10 02:18:42;;;;;;;12.37;2.67;;;13.40;86.00;;;;;;5052813;28;20196;-87
2022/07/10 02:21:08;;;;;;;13.00;2.20;;;13.30;86.50;;;;;;5051949;28;20196;-86
2022/07/10 02:23:35;;;;;;;15.93;2.80;;;13.30;86.80;;;;;;5051720;28;20175;-85
2022/07/10 02:26:01;;;;;;;12.53;2.73;;;13.30;86.80;;;;;;5055200;28;20658;-86
2022/07/10 02:28:27;;;;;;;12.40;2.93;;;13.30;86.90;;;;;;5055738;28;20182;-86
2022/07/10 02:30:53;;;;;;;8.80;2.60;;;13.20;87.00;;;;;;5055657;28;20627;-86
2022/07/10 02:33:18;;;;;;;13.53;2.90;;;13.20;86.90;;;;;;5056876;28;20267;-87
2022/07/10 02:35:44;;;;;;;12.80;2.67;;;13.20;86.90;;;;;;5056771;28;20218;-86
2022/07/10 02:38:10;;;;;;;20.13;3.33;;;13.20;86.50;;;;;;5055352;28;20227;-86
2022/07/10 02:40:35;;;;;;;11.47;2.90;;;13.30;86.20;;;;;;5056735;28;20215;-87
2022/07/10 02:43:01;;;;;;;13.57;2.80;;;13.20;86.20;;;;;;5056221;28;20192;-86
2022/07/10 02:45:26;;;;;;;13.83;3.33;;;13.30;86.10;;;;;;5055595;28;20172;-86
2022/07/10 02:47:52;;;;;;;15.17;3.37;;;13.20;86.10;;;;;;5055284;28;20179;-86
2022/07/10 02:50:17;;;;;;;15.03;3.50;;;13.20;86.20;;;;;;5055343;28;20225;-86
2022/07/10 02:52:43;;;;;;;13.63;3.47;;;13.20;86.20;;;;;;5055106;28;20291;-86
2022/07/10 02:55:08;;;;;;;16.10;2.63;;;13.20;86.00;;;;;;5055001;28;20280;-86
2022/07/10 02:57:34;;;;;;;18.43;3.77;;;13.20;85.80;;;;;;5054955;28;20353;-86
2022/07/10 02:59:59;;;;;;;17.77;3.57;;;13.30;85.60;;;;;;5055280;28;20273;-86
2022/07/10 03:02:26;;;;;;;14.43;3.67;;;13.30;85.30;;;;;;5054820;28;20202;-86
2022/07/10 03:04:52;;;;;;;14.17;3.70;;;13.30;85.00;;;;;;5054906;28;20182;-86
2022/07/10 03:07:17;;;;;;;17.30;3.87;;;13.40;84.00;;;;;;5056277;28;20164;-86
2022/07/10 03:09:43;;;;;;;15.93;3.53;;;13.60;82.30;;;;;;5054742;28;20182;-86
2022/07/10 03:12:08;;;;;;;15.77;3.57;;;13.60;81.80;;;;;;5055944;28;20795;-86
2022/07/10 03:14:34;;;;;;;13.33;3.43;;;13.70;81.70;;;;;;5055986;28;20200;-86
2022/07/10 03:16:59;;;;;;;15.67;3.50;;;13.70;81.80;;;;;;5055860;28;20172;-86
2022/07/10 03:19:25;;;;;;;22.67;3.80;;;13.70;81.80;;;;;;5054655;28;20176;-86
2022/07/10 03:21:51;;;;;;;26.17;4.23;;;13.70;82.00;;;;;;5055974;28;20666;-87
2022/07/10 03:24:16;;;;;;;18.10;4.43;;;13.80;81.60;;;;;;5055774;28;20195;-86
2022/07/10 03:26:42;;;;;;;14.13;3.60;;;13.80;82.00;;;;;;5054836;28;20661;-86
2022/07/10 03:29:08;;;;;;;17.63;3.57;;;13.80;82.10;;;;;;5054547;28;20199;-86
2022/07/10 03:31:34;;;;;;;19.80;3.77;;;13.80;82.50;;;;;;5055932;28;20242;-86
2022/07/10 03:33:59;;;;;;;22.80;3.73;;;13.80;82.50;;;;;;5054274;28;20552;-86
2022/07/10 03:36:25;;;;;;;21.53;4.33;;;13.80;82.60;;;;;;5054929;28;20187;-86
2022/07/10 03:38:50;;;;;;;14.13;3.20;;;13.80;82.70;;;;;;5057218;28;20200;-87
2022/07/10 03:41:16;;;;;;;22.60;4.70;;;13.80;82.30;;;;;;5054153;28;20203;-86
2022/07/10 03:43:41;;;;;;;12.37;2.83;;;13.80;81.50;;;;;;5054187;28;20326;-86
2022/07/10 03:46:07;;;;;;;17.77;3.90;;;13.80;80.80;;;;;;5054949;28;20207;-86
2022/07/10 03:48:33;;;;;;;17.13;4.10;;;13.80;80.10;;;;;;5055911;28;20179;-86
2022/07/10 03:50:59;;;;;;;18.53;3.37;;;13.80;80.10;;;;;;5055323;28;20179;-86
2022/07/10 03:53:25;;;;;;;18.07;3.43;;;13.80;80.10;;;;;;5054165;28;20187;-86
2022/07/10 03:55:50;;;;;;;14.17;3.17;;;13.80;80.00;;;;;;5054125;28;20270;-86
2022/07/10 03:58:16;;;;;;;23.17;4.60;;;13.70;80.10;;;;;;5055121;28;20678;-86
2022/07/10 04:00:43;;;;;;;17.50;4.20;;;13.70;80.20;;;;;;5053845;28;20285;-85
2022/07/10 04:03:09;;;;;;;16.17;3.27;;;13.70;80.00;;;;;;5053786;28;20669;-86
2022/07/10 04:05:35;;;;;;;9.50;3.17;;;13.70;80.00;;;;;;5054184;28;20580;-86
2022/07/10 04:08:01;;;;;;;14.63;3.40;;;13.60;80.00;;;;;;5053763;28;20184;-85
2022/07/10 04:10:28;;;;;;;18.10;4.67;;;13.50;80.60;;;;;;5054841;28;20202;-85
2022/07/10 04:12:54;;;;;;;15.63;3.40;;;13.50;80.70;;;;;;5053585;28;20282;-87
2022/07/10 04:15:21;;;;;;;16.73;3.57;;;13.60;80.70;;;;;;5053530;28;20737;-85
2022/07/10 04:17:47;;;;;;;15.60;3.50;;;13.70;80.70;;;;;;5053905;28;20314;-86
2022/07/10 04:20:13;;;;;;;19.83;3.77;;;13.80;80.20;;;;;;5054707;28;20175;-85
2022/07/10 04:22:39;;;;;;;20.90;4.87;;;13.80;79.60;;;;;;5053400;28;20200;-86
2022/07/10 04:25:05;;;;;;;17.67;4.03;;;13.90;79.30;;;;;;5053252;28;20192;-86
2022/07/10 04:27:31;;;;;;;24.97;3.73;;;13.90;78.90;;;;;;5054618;28;20179;-86
2022/07/10 04:29:56;;;;;;;26.53;4.03;;;14.00;78.70;;;;;;5053251;28;20628;-85
2022/07/10 04:32:22;;;;;;;21.27;4.10;;;14.00;78.80;;;;;;5054606;28;20196;-86
2022/07/10 04:34:47;;;;;;;18.00;4.30;;;14.00;78.80;;;;;;5053157;28;20603;-85
2022/07/10 04:37:13;;;;;;;19.60;3.77;;;13.90;78.80;;;;;;5054226;28;20255;-86
2022/07/10 04:39:39;;;;;;;17.73;3.63;;;13.90;79.00;;;;;;5054637;28;20263;-86
2022/07/10 04:42:05;;;;;;;16.60;4.40;;;13.90;79.20;;;;;;5052928;28;20239;-86
2022/07/10 04:44:31;;;;;;;20.07;3.80;;;13.90;79.00;;;;;;5054293;28;20187;-86
2022/07/10 04:46:57;;;;;;;17.20;3.80;;;13.90;79.30;;;;;;5052083;28;20176;-86
2022/07/10 04:49:22;;;;;;;19.83;4.13;;;13.90;79.30;;;;;;5052853;28;20527;-86
2022/07/10 04:51:48;;;;;;;23.07;3.80;;;14.00;79.20;;;;;;5054199;28;20196;-86
2022/07/10 04:54:14;;;;;;;16.57;4.00;;;14.00;79.10;;;;;;5054130;28;20175;-86
2022/07/10 04:56:39;;;;;;;21.53;3.77;;;14.00;79.30;;;;;;5052773;28;20176;-85
2022/07/10 04:59:05;;;;;;;23.10;3.63;;;14.10;78.90;;;;;;5053769;28;20203;-87
2022/07/10 05:01:31;;;;;;;19.77;3.70;;;14.10;78.30;;;;;;5054153;28;20236;-87
2022/07/10 05:03:57;;;;;;;15.47;3.40;;;14.20;78.00;;;;;;5052924;28;20211;-87
2022/07/10 05:06:23;;;;;;;18.07;4.67;;;14.20;77.70;;;;;;5053881;28;20638;-86
2022/07/10 05:08:49;;;;;;;21.70;4.60;;;14.20;77.60;;;;;;5052957;28;20180;-87
2022/07/10 05:11:14;;;;;;;18.10;4.23;;;14.20;77.10;;;;;;5053951;28;20670;-87
2022/07/10 05:13:40;;;;;;;22.23;3.47;;;14.30;77.20;;;;;;5053944;28;20212;-87
2022/07/10 05:16:06;;;;;;;18.23;3.87;;;14.20;76.30;;;;;;5054908;28;20632;-87
2022/07/10 05:18:31;;;;;;;19.37;3.83;;;14.30;76.20;;;;;;5053921;28;20191;-86
2022/07/10 05:20:57;;;;;;;19.87;3.63;;;14.30;76.00;;;;;;5052767;28;20651;-87
2022/07/10 05:23:23;;;;;;;18.10;4.30;;;14.30;75.50;;;;;;5052748;28;20180;-88
2022/07/10 05:25:49;;;;;;;14.70;3.20;;;14.30;75.40;;;;;;5052595;28;20196;-87
2022/07/10 05:28:15;;;;;;;20.03;4.17;;;14.40;75.80;;;;;;5052790;28;20230;-86
2022/07/10 05:30:41;;;;;;;14.97;3.40;;;14.40;75.80;;;;;;5052558;28;20176;-87
2022/07/10 05:33:07;;;;;;;21.87;4.30;;;14.30;75.80;;;;;;5052742;28;20176;-87
2022/07/10 05:35:33;;;;;;;18.50;4.00;;;14.30;76.10;;;;;;5052733;28;20183;-87
2022/07/10 05:37:59;;;;;;;17.80;3.90;;;14.30;76.20;;;;;;5052633;28;20208;-87
2022/07/10 05:40:24;;;;;;;20.70;4.20;;;14.20;75.80;;;;;;5053851;28;20164;-87
2022/07/10 05:42:50;;;;;;;17.97;3.53;;;14.20;76.10;;;;;;5053856;28;20192;-88
2022/07/10 05:45:15;;;;;;;20.70;4.03;;;14.30;76.00;;;;;;5053791;28;20694;-87
2022/07/10 05:47:41;;;;;;;24.33;4.07;;;14.40;75.70;;;;;;5052923;28;20187;-87
2022/07/10 05:50:08;;;;;;;17.73;3.37;;;14.50;75.60;;;;;;5052953;28;20630;-87
2022/07/10 05:52:33;;;;;;;18.83;3.43;;;14.50;75.70;;;;;;5053721;28;20669;-86
2022/07/10 05:54:59;;;;;;;21.13;3.63;;;14.50;74.40;;;;;;5052345;28;20184;-87
2022/07/10 05:57:25;;;;;;;21.03;3.47;;;14.60;74.00;;;;;;5052077;28;20215;-87
2022/07/10 05:59:51;;;;;;;21.63;3.93;;;14.50;73.60;;;;;;5053562;28;20172;-86
2022/07/10 06:02:16;;;;;;;19.50;3.73;;;14.40;73.20;;;;;;5053483;28;20591;-87
2022/07/10 06:04:42;;;;;;;17.97;3.70;;;14.40;72.90;;;;;;5052244;28;20175;-87
2022/07/10 06:07:08;;;;;;;21.30;4.13;;;14.40;72.60;;;;;;5052338;28;20744;-87
2022/07/10 06:09:34;;;;;;;25.53;4.40;;;14.50;73.00;;;;;;5052418;28;20171;-88
2022/07/10 06:12:00;;;;;;;16.43;3.77;;;14.70;73.10;;;;;;5051971;28;20661;-87
2022/07/10 06:14:25;;;;;;;15.50;3.53;;;14.80;73.50;;;;;;5053849;28;20638;-87
2022/07/10 06:16:51;;;;;;;14.03;3.67;;;14.90;73.50;;;;;;5052130;28;20183;-87
2022/07/10 06:19:18;;;;;;;21.53;3.53;;;15.00;73.20;;;;;;5051881;28;20214;-87
2022/07/10 06:21:44;;;;;;;24.77;4.47;;;15.20;72.20;;;;;;5052331;28;20215;-87
2022/07/10 06:24:09;;;;;;;19.17;3.23;;;15.30;71.50;;;;;;5052684;28;20291;-88
2022/07/10 06:26:35;;;;;;;20.40;3.97;;;15.50;70.80;;;;;;5052622;28;20208;-90
2022/07/10 06:29:00;;;;;;;20.15;4.32;;;15.60;70.40;;;;;;5052648;28;20180;-87
2022/07/10 06:31:26;;;;;;;17.08;4.05;;;15.70;70.20;;;;;;5053036;28;20287;-88
2022/07/10 06:33:52;;;;;;;18.40;4.28;;;15.80;70.90;;;;;;5052936;28;20208;-87
2022/07/10 06:36:17;;;;;;;11.40;2.80;;;15.90;71.30;;;;;;5053428;28;20184;-87
2022/07/10 06:38:43;;;;;;;19.88;3.33;;;16.10;69.80;;;;;;5053356;28;20196;-87
2022/07/10 06:41:09;;;;;;;15.55;3.78;;;16.20;70.30;;;;;;5052194;28;20692;-88
2022/07/10 06:43:34;;;;;;;17.00;3.05;;;16.30;68.50;;;;;;5051769;28;20176;-87
2022/07/10 06:46:00;;;;;;;14.60;2.78;;;16.30;67.70;;;;;;5051685;28;20172;-89
2022/07/10 06:48:27;;;;;;;16.75;3.70;;;16.30;67.70;;;;;;5051608;28;20184;-87
2022/07/10 06:50:53;;;;;;;17.83;3.22;;;16.40;66.10;;;;;;5052874;28;20577;-86
2022/07/10 06:53:23;;;;;;;19.60;3.40;;;16.40;63.90;;;;;;5051802;28;20275;-87
2022/07/10 06:55:50;;;;;;;17.52;3.13;;;16.50;64.50;;;;;;5052123;28;20268;-90
2022/07/10 06:58:16;;;;;;;13.27;2.85;;;16.60;64.20;;;;;;5051614;28;20196;-87
2022/07/10 07:00:41;;;;;;;15.13;3.13;;;16.50;62.90;;;;;;5052069;28;20172;-88
2022/07/10 07:03:07;;;;;;;21.63;3.50;;;16.30;63.10;;;;;;5051893;28;20180;-88
2022/07/10 07:05:32;;;;;;;16.63;3.08;;;16.20;62.70;;;;;;5053615;28;20210;-88
2022/07/10 07:07:58;;;;;;;10.63;3.35;;;16.10;64.10;;;;;;5051777;28;20215;-88
2022/07/10 07:10:23;;;;;;;16.70;3.38;;;16.20;64.50;;;;;;5052481;28;20180;-88
2022/07/10 07:12:49;;;;;;;16.63;3.65;;;16.30;64.70;;;;;;5055674;28;20685;-88
2022/07/10 07:15:16;;;;;;;18.98;3.10;;;16.20;64.00;;;;;;5057075;28;20176;-87
2022/07/10 07:18:07;;;;;;;10.80;2.78;;;16.30;64.70;;;;;;5055305;28;20204;-88
2022/07/10 07:23:18;;;;;;;22.85;3.30;;;16.30;65.10;;;;;;5057029;28;20179;-89
2022/07/10 07:25:47;;;;;;;16.83;3.50;;;16.40;64.90;;;;;;5056519;28;20207;-88
2022/07/10 07:28:18;;;;;;;16.45;3.20;;;16.30;65.00;;;;;;5054896;28;20550;-88
2022/07/10 07:30:44;;;;;;;11.65;2.90;;;16.40;65.30;;;;;;5055495;28;20208;-88
2022/07/10 07:33:10;;;;;;;12.50;2.75;;;16.50;63.80;;;;;;5055076;28;20558;-87
2022/07/10 07:35:36;;;;;;;15.15;3.28;;;16.60;63.80;;;;;;5055102;28;20203;-88
2022/07/10 07:38:03;;;;;;;14.82;3.38;;;16.60;64.50;;;;;;5055077;28;20681;-88
2022/07/10 07:40:29;;;;;;;14.07;2.90;;;16.70;63.00;;;;;;5055176;28;20683;-87
2022/07/10 07:42:55;;;;;;;18.77;3.78;;;16.80;63.50;;;;;;5054638;28;20223;-87
2022/07/10 07:45:22;;;;;;;17.15;3.03;;;16.90;63.50;;;;;;5055013;28;20230;-89
2022/07/10 07:47:55;;;;;;;12.32;2.28;;;16.90;63.00;;;;;;5054767;28;20199;-87
2022/07/10 07:50:23;;;;;;;12.80;2.58;;;16.90;62.10;;;;;;5055192;28;20262;-87
2022/07/10 07:52:49;;;;;;;10.35;2.92;;;16.70;63.40;;;;;;5055117;28;20226;-88
2022/07/10 07:55:17;;;;;;;17.08;3.70;;;16.60;65.30;;;;;;5054693;28;20180;-89
2022/07/10 07:57:43;;;;;;;21.13;3.45;;;16.70;66.80;;;;;;5054479;28;20253;-88
2022/07/10 08:00:11;;;;;;;14.70;3.20;;;17.10;67.00;;;;;;5054649;28;20253;-88
2022/07/10 08:02:37;;;;;;;16.75;3.55;;;17.20;64.20;;;;;;5055962;28;20188;-87
2022/07/10 08:05:04;;;;;;;16.50;2.97;;;16.80;65.20;;;;;;5055028;28;20230;-87
2022/07/10 08:07:54;;;;;;;18.25;3.30;;;16.40;65.90;;;;;;5056643;28;20638;-88
2022/07/10 08:10:22;;;;;;;13.48;3.13;;;16.60;67.20;;;;;;5054416;28;20715;-87
2022/07/10 08:12:48;;;;;;;15.07;3.40;;;16.80;65.10;;;;;;5055462;28;20222;-86
2022/07/10 08:15:16;;;;;;;18.02;3.60;;;16.90;64.60;;;;;;5055228;28;20172;-87
2022/07/10 08:17:43;;;;;;;13.73;3.85;;;17.10;65.10;;;;;;5054045;28;20206;-88
2022/07/10 08:20:11;;;;;;;13.77;2.85;;;17.10;64.10;;;;;;5055697;28;20174;-89
2022/07/10 08:22:37;;;;;;;16.70;2.88;;;17.30;63.20;;;;;;5054339;28;20683;-87
2022/07/10 08:25:03;;;;;;;11.18;2.85;;;17.50;61.40;;;;;;5055286;28;20196;-89
2022/07/10 08:27:28;;;;;;;12.75;2.53;;;17.30;60.10;;;;;;5054814;28;20175;-87
2022/07/10 08:29:54;;;;;;;12.23;2.70;;;17.50;59.50;;;;;;5055271;28;20180;-87
2022/07/10 08:32:20;;;;;;;12.23;2.35;;;17.50;59.60;;;;;;5055862;28;20207;-88
2022/07/10 08:34:47;;;;;;;13.57;2.65;;;17.70;58.60;;;;;;5054788;28;20180;-88
2022/07/10 08:37:13;;;;;;;14.05;2.65;;;17.70;60.00;;;;;;5055321;28;20168;-87
2022/07/10 08:39:39;;;;;;;5.88;1.92;;;17.80;60.30;;;;;;5053877;28;20179;-88
2022/07/10 08:42:06;;;;;;;15.85;3.03;;;17.90;59.80;;;;;;5053564;28;20283;-87
2022/07/10 08:44:32;;;;;;;15.27;2.17;;;18.00;58.60;;;;;;5054533;28;20207;-87
2022/07/10 08:46:58;;;;;;;9.73;2.88;;;18.00;60.90;;;;;;5055015;28;20168;-89
2022/07/10 08:49:28;;;;;;;13.05;2.70;;;18.20;57.60;;;;;;5054023;28;20255;-87
2022/07/10 08:52:01;;;;;;;14.02;3.10;;;18.40;58.10;;;;;;5054643;28;20191;-87
2022/07/10 08:54:28;;;;;;;12.85;2.45;;;18.50;57.20;;;;;;5053848;28;20174;-88
2022/07/10 08:56:59;;;;;;;13.38;2.63;;;18.20;56.10;;;;;;5054036;28;20234;-87
2022/07/10 08:59:26;;;;;;;9.93;2.63;;;18.30;55.50;;;;;;5053844;28;20192;-87
2022/07/10 09:01:53;;;;;;;12.48;2.40;;;18.30;55.50;;;;;;5055238;28;20658;-88
2022/07/10 09:04:28;;;;;;;12.63;2.55;;;18.50;57.00;;;;;;5055940;28;20178;-88
2022/07/10 09:06:55;;;;;;;9.10;2.17;;;18.70;57.00;;;;;;5053887;28;20717;-87
2022/07/10 09:09:20;;;;;;;14.95;3.40;;;18.50;55.30;;;;;;5053275;28;20230;-88
2022/07/10 09:11:46;;;;;;;11.65;2.13;;;18.60;56.70;;;;;;5053135;28;20633;-88
2022/07/10 09:14:16;;;;;;;10.00;2.08;;;18.80;55.70;;;;;;5055059;28;20234;-89
2022/07/10 09:16:44;;;;;;;8.75;2.22;;;18.90;55.00;;;;;;5053575;28;20722;-88
2022/07/10 09:19:24;;;;;;;10.38;1.90;;;18.90;54.60;;;;;;5054374;28;20192;-88
2022/07/10 09:21:51;;;;;;;9.07;2.50;;;18.80;54.20;;;;;;5054581;28;20562;-87
2022/07/10 09:24:19;;;;;;;7.35;2.03;;;19.00;55.20;;;;;;5052841;28;20554;-86
2022/07/10 09:26:59;;;;;;;7.03;2.20;;;19.30;53.10;;;;;;5053009;28;20190;-84
2022/07/10 09:29:25;;;;;;;12.63;2.75;;;19.50;51.40;;;;;;5053714;28;20637;-85
2022/07/10 09:31:55;;;;;;;10.65;2.10;;;19.20;51.90;;;;;;5052751;28;20235;-85
2022/07/10 09:34:40;;;;;;;10.70;2.55;;;19.20;52.40;;;;;;5053205;28;20210;-85
2022/07/10 09:37:26;;;;;;;10.88;2.67;;;19.20;52.30;;;;;;5052498;28;20240;-84
2022/07/10 09:39:53;;;;;;;8.90;2.17;;;19.30;54.80;;;;;;5052211;28;20661;-84
2022/07/10 09:42:47;;;;;;;9.80;2.88;;;19.40;53.80;;;;;;5052277;28;20277;-85
2022/07/10 09:45:12;;;;;;;14.38;2.88;;;19.70;53.50;;;;;;5053729;28;20203;-86
2022/07/10 09:47:41;;;;;;;12.60;2.17;;;19.20;54.20;;;;;;5054320;28;20168;-85
2022/07/10 09:50:19;;;;;;;11.27;2.42;;;19.20;55.60;;;;;;5052227;28;20229;-85
2022/07/10 09:52:46;;;;;;;9.00;2.53;;;19.30;55.70;;;;;;5053332;28;20241;-85
2022/07/10 09:55:13;;;;;;;9.80;2.28;;;19.30;56.90;;;;;;5053510;28;20176;-85
2022/07/10 09:57:43;;;;;;;11.63;2.13;;;20.00;55.10;;;;;;5052224;28;20756;-85
2022/07/10 10:00:10;;;;;;;10.95;2.08;;;19.80;55.90;;;;;;5051965;28;20237;-84
2022/07/10 10:02:37;;;;;;;8.30;2.35;;;19.90;55.30;;;;;;5052149;28;20281;-85
2022/07/10 10:05:04;;;;;;;10.70;2.10;;;19.50;53.50;;;;;;5052392;28;20182;-86
2022/07/10 10:07:30;;;;;;;10.32;2.50;;;19.30;54.30;;;;;;5052961;28;20184;-85
2022/07/10 10:09:59;;;;;;;9.45;2.50;;;19.50;54.10;;;;;;5052188;28;20176;-87
2022/07/10 10:12:42;;;;;;;9.18;2.67;;;19.50;53.90;;;;;;5052357;28;20200;-87
2022/07/10 10:15:10;;;;;;;11.90;2.30;;;19.70;52.90;;;;;;5052788;28;20630;-88
2022/07/10 10:17:38;;;;;;;13.07;2.95;;;19.80;53.00;;;;;;5053054;28;20290;-87
2022/07/10 10:22:50;;;;;;;13.68;3.13;;;19.40;55.10;;;;;;5056742;28;20195;-85
2022/07/10 10:25:19;;;;;;;6.57;2.40;;;19.50;54.60;;;;;;5057347;28;20184;-86
2022/07/10 10:27:45;;;;;;;7.72;1.90;;;19.80;54.10;;;;;;5058473;28;20195;-85
2022/07/10 10:30:11;;;;;;;8.32;1.92;;;19.70;52.60;;;;;;5053337;28;20210;-85
2022/07/10 10:32:40;;;;;;;12.02;2.50;;;20.10;53.40;;;;;;5053206;28;20191;-85
2022/07/10 10:35:09;;;;;;;9.18;1.85;;;20.20;52.70;;;;;;5052145;28;20176;-85
2022/07/10 10:37:40;;;;;;;5.25;1.50;;;20.10;49.70;;;;;;5053482;28;20192;-86
2022/07/10 10:40:08;;;;;;;8.82;1.88;;;19.80;51.10;;;;;;5051887;28;20168;-84
2022/07/10 10:42:44;;;;;;;9.30;2.38;;;20.10;52.00;;;;;;5051709;28;20199;-84
2022/07/10 10:45:27;;;;;;;9.18;2.10;;;19.90;52.00;;;;;;5052153;28;20188;-85
2022/07/10 10:48:06;;;;;;;9.18;2.33;;;20.10;54.30;;;;;;5057256;28;20243;-85
2022/07/10 10:50:42;;;;;;;6.05;1.80;;;19.70;53.80;;;;;;5055844;28;20313;-84
2022/07/10 10:53:22;;;;;;;7.28;1.67;;;20.00;52.60;;;;;;5056864;28;20168;-85
2022/07/10 10:56:14;;;;;;;8.75;2.15;;;19.50;52.60;;;;;;5055257;28;20526;-84
2022/07/10 10:58:45;;;;;;;7.10;2.20;;;19.90;53.30;;;;;;5053964;28;20212;-85
2022/07/10 11:01:28;;;;;;;11.18;1.75;;;20.10;51.40;;;;;;5056708;28;20220;-85
2022/07/10 11:04:09;;;;;;;10.35;1.92;;;20.00;51.10;;;;;;5055261;28;20251;-85
2022/07/10 11:06:41;;;;;;;9.52;1.88;;;19.90;51.80;;;;;;5055338;28;20172;-84
2022/07/10 11:09:30;;;;;;;10.32;1.95;;;20.00;52.50;;;;;;5055491;28;20263;-86
2022/07/10 11:12:06;;;;;;;10.85;2.85;;;19.80;53.20;;;;;;5055774;28;20200;-85
2022/07/10 11:14:42;;;;;;;9.20;2.33;;;20.00;53.20;;;;;;5056558;28;20226;-84
2022/07/10 11:17:09;;;;;;;8.13;2.17;;;19.80;54.60;;;;;;5056904;28;20159;-85
2022/07/10 11:19:35;;;;;;;8.57;2.15;;;20.00;53.70;;;;;;5057273;28;20310;-85
2022/07/10 11:22:18;;;;;;;9.25;2.22;;;19.50;53.30;;;;;;5056466;28;20180;-87
2022/07/10 11:25:00;;;;;;;16.92;3.03;;;19.20;54.60;;;;;;5057196;28;20188;-85
2022/07/10 11:27:34;;;;;;;15.50;2.95;;;19.90;53.40;;;;;;5057009;28;20161;-86
2022/07/10 11:30:01;;;;;;;9.00;2.20;;;19.90;53.00;;;;;;5055249;28;20263;-85
2022/07/10 11:32:27;;;;;;;12.20;2.60;;;19.90;51.60;;;;;;5055237;28;20196;-88
2022/07/10 11:34:55;;;;;;;10.75;2.20;;;20.10;52.90;;;;;;5056400;28;20172;-87
2022/07/10 11:37:22;;;;;;;10.63;2.15;;;20.20;51.60;;;;;;5055728;28;20263;-88
2022/07/10 11:39:47;;;;;;;11.05;1.98;;;19.50;53.60;;;;;;5055067;28;20179;-86
2022/07/10 11:42:13;;;;;;;12.10;2.53;;;20.20;49.90;;;;;;5054550;28;20569;-86
2022/07/10 11:44:39;;;;;;;6.10;1.65;;;19.90;51.10;;;;;;5054717;28;20604;-87
2022/07/10 11:47:05;;;;;;;10.95;2.25;;;19.70;51.90;;;;;;5054823;28;20180;-87
2022/07/10 11:49:30;;;;;;;9.27;2.28;;;20.00;53.50;;;;;;5054705;28;20179;-88
2022/07/10 11:52:02;;;;;;;9.98;2.08;;;20.30;51.90;;;;;;5055724;28;20557;-87
2022/07/10 11:54:27;;;;;;;14.07;2.15;;;20.60;50.20;;;;;;5054838;28;20295;-87
2022/07/10 11:56:53;;;;;;;8.23;2.38;;;20.30;51.00;;;;;;5055148;28;20671;-86
2022/07/10 11:59:25;;;;;;;15.07;2.33;;;20.70;50.80;;;;;;5055653;28;20207;-87
2022/07/10 12:01:52;;;;;;;12.75;1.98;;;20.40;50.30;;;;;;5056978;28;20187;-88
2022/07/10 12:04:24;;;;;;;9.20;2.33;;;20.50;51.70;;;;;;5055599;28;20172;-87
2022/07/10 12:06:51;;;;;;;10.45;1.70;;;20.30;49.60;;;;;;5056393;28;20172;-86
2022/07/10 12:09:22;;;;;;;10.50;1.70;;;20.20;50.20;;;;;;5056731;28;20255;-86
2022/07/10 12:12:04;;;;;;;8.75;1.67;;;20.50;49.10;;;;;;5056442;28;20192;-87
2022/07/10 12:14:30;;;;;;;6.63;1.98;;;20.40;50.10;;;;;;5055256;28;20644;-85
2022/07/10 12:16:56;;;;;;;8.40;2.17;;;20.40;49.50;;;;;;5055623;28;20176;-86
2022/07/10 12:19:27;;;;;;;7.97;2.03;;;20.30;50.10;;;;;;5055469;28;20731;-87
2022/07/10 12:21:53;;;;;;;16.23;2.33;;;20.90;50.80;;;;;;5054234;28;20666;-86
2022/07/10 12:24:20;;;;;;;7.70;2.35;;;21.10;49.60;;;;;;5055975;28;20192;-87
2022/07/10 12:26:47;;;;;;;9.82;2.00;;;21.50;50.50;;;;;;5056809;28;20168;-86
2022/07/10 12:29:26;;;;;;;8.05;2.15;;;21.20;49.90;;;;;;5054401;28;20178;-86
2022/07/10 12:31:55;;;;;;;6.25;1.70;;;21.50;48.20;;;;;;5055219;28;20200;-87
2022/07/10 12:34:36;;;;;;;12.65;2.47;;;20.50;48.10;;;;;;5053730;28;20211;-86
2022/07/10 12:37:13;;;;;;;6.00;1.92;;;20.40;50.00;;;;;;5055242;28;20167;-89
2022/07/10 12:39:52;;;;;;;9.43;2.22;;;19.90;52.50;;;;;;5055405;28;20249;-87
2022/07/10 12:42:31;;;;;;;11.50;1.80;;;20.10;51.70;;;;;;5054901;28;20241;-86
2022/07/10 12:45:17;;;;;;;8.93;2.03;;;20.20;51.10;;;;;;5053476;28;20258;-88
2022/07/10 12:47:47;;;;;;;10.40;2.67;;;20.10;53.20;;;;;;5053052;28;20211;-86
2022/07/10 12:50:13;;;;;;;11.00;2.35;;;20.00;52.20;;;;;;5053531;28;20206;-87
2022/07/10 12:52:39;;;;;;;13.65;2.92;;;19.50;54.30;;;;;;5053143;28;20622;-86